createdAt,value
2023-03-08T00:01:59.576Z,100158.63
2023-03-08T00:04:29.200Z,100161.22
2023-03-08T00:06:59.034Z,100153.48
2023-03-08T00:09:28.872Z,100151.88
2023-03-08T00:11:58.685Z,100161.39
2023-03-08T00:14:28.457Z,100164.74
2023-03-08T00:16:58.694Z,100156.69
2023-03-08T00:19:28.476Z,100162.67
2023-03-08T00:21:58.687Z,100172.62
2023-03-08T00:24:28.282Z,100171.79
2023-03-08T00:26:58.122Z,100170.44
2023-03-08T00:29:27.948Z,100159.27
2023-03-08T00:31:59.407Z,100142.47
2023-03-08T00:34:29.186Z,100159.42
2023-03-08T00:36:58.945Z,100164.34
2023-03-08T00:39:28.695Z,100158.37
2023-03-08T00:41:58.469Z,100161.84
2023-03-08T00:44:28.037Z,100157.34
2023-03-08T00:46:57.972Z,100156.61
2023-03-08T00:49:27.939Z,100150.41
2023-03-08T00:51:58.002Z,100152.55
2023-03-08T00:54:27.828Z,100149.75
2023-03-08T00:56:57.857Z,100145.55
2023-03-08T00:59:28.008Z,100143.76
2023-03-08T01:01:58.756Z,100136.42
2023-03-08T01:04:28.672Z,100135.25
2023-03-08T01:06:59.332Z,100137.22
2023-03-08T01:09:29.093Z,100137.94
2023-03-08T01:11:58.967Z,100125.98
2023-03-08T01:14:30.009Z,100125.09
2023-03-08T01:16:59.776Z,100126.88
2023-03-08T01:19:29.720Z,100124.26
2023-03-08T01:22:00.360Z,100113.45
2023-03-08T01:24:30.186Z,100111.34
2023-03-08T01:27:00.926Z,100119.56
2023-03-08T01:29:30.710Z,100119.56
2023-03-08T01:32:00.552Z,100119.39
2023-03-08T01:34:30.398Z,100106.30
2023-03-08T01:37:00.187Z,100108.81
2023-03-08T01:39:29.955Z,100102.72
2023-03-08T01:41:59.719Z,100099.09
2023-03-08T01:44:32.186Z,100094.00
2023-03-08T01:47:01.964Z,100090.32
2023-03-08T01:49:36.022Z,100084.71
2023-03-08T01:52:12.866Z,100089.03
2023-03-08T01:54:48.986Z,100089.03
2023-03-08T01:57:21.763Z,100072.59
2023-03-08T01:59:53.966Z,100072.59
2023-03-08T02:02:29.864Z,100068.36
2023-03-08T02:04:59.834Z,100066.55
2023-03-08T02:07:31.164Z,100064.37
2023-03-08T02:10:01.326Z,100055.55
2023-03-08T02:12:31.211Z,100055.55
2023-03-08T02:15:03.355Z,100055.77
2023-03-08T02:17:35.143Z,100052.12
2023-03-08T02:20:20.931Z,100046.25
2023-03-08T02:22:52.363Z,100043.35
2023-03-08T02:25:25.711Z,100049.10
2023-03-08T02:27:56.295Z,100036.85
2023-03-08T02:30:28.772Z,100033.30
2023-03-08T02:32:58.718Z,100033.63
2023-03-08T02:35:32.005Z,100036.76
2023-03-08T02:38:01.821Z,100028.30
2023-03-08T02:40:33.566Z,100018.84
2023-03-08T02:43:03.653Z,100014.14
2023-03-08T02:45:34.440Z,100025.02
2023-03-08T02:48:07.369Z,100023.37
2023-03-08T02:50:37.460Z,100010.64
2023-03-08T02:53:08.120Z,100017.52
2023-03-08T02:55:38.184Z,100011.02
2023-03-08T02:58:11.839Z,100015.45
2023-03-08T03:00:42.114Z,100019.67
2023-03-08T03:03:12.049Z,100011.14
2023-03-08T03:05:45.702Z,100014.16
2023-03-08T03:08:16.953Z,100006.13
2023-03-08T03:10:46.753Z,100000.77
2023-03-08T03:13:16.823Z,99997.59
2023-03-08T03:15:46.679Z,99997.61
2023-03-08T03:18:16.547Z,99998.58
2023-03-08T03:20:46.357Z,100001.28
2023-03-08T03:23:16.181Z,100012.38
2023-03-08T03:25:47.672Z,100000.79
2023-03-08T03:28:18.911Z,100000.79
2023-03-08T03:30:49.917Z,100005.02
2023-03-08T03:33:19.938Z,100001.98
2023-03-08T03:35:50.000Z,99972.43
2023-03-08T03:38:20.687Z,99973.25
2023-03-08T03:40:50.988Z,99979.48
2023-03-08T03:43:21.019Z,99977.98
2023-03-08T03:46:01.873Z,99977.80
2023-03-08T03:48:32.257Z,99961.00
2023-03-08T03:51:07.227Z,99956.81
2023-03-08T03:53:37.628Z,99946.56
2023-03-08T03:56:13.144Z,99949.23
2023-03-08T03:58:43.587Z,99943.70
2023-03-08T04:01:17.509Z,99932.28
2023-03-08T04:03:47.762Z,99931.42
2023-03-08T04:06:20.625Z,99939.15
2023-03-08T04:08:53.951Z,99940.31
2023-03-08T04:11:26.298Z,99937.64
2023-03-08T04:13:57.045Z,99934.57
2023-03-08T04:16:30.669Z,99932.73
2023-03-08T04:19:03.724Z,99931.71
2023-03-08T04:21:34.706Z,99930.39
2023-03-08T04:24:06.584Z,99928.06
2023-03-08T04:26:37.728Z,99912.72
2023-03-08T04:29:07.883Z,99900.63
2023-03-08T04:31:38.196Z,99902.52
2023-03-08T04:34:11.911Z,99902.52
2023-03-08T04:36:43.039Z,99905.52
2023-03-08T04:39:12.901Z,99902.52
2023-03-08T04:41:42.885Z,99889.58
2023-03-08T04:44:14.224Z,99882.80
2023-03-08T04:46:45.858Z,99886.64
2023-03-08T04:49:17.666Z,99889.41
2023-03-08T04:51:49.130Z,99885.25
2023-03-08T04:54:19.123Z,99879.01
2023-03-08T04:56:50.667Z,99876.33
2023-03-08T04:59:21.721Z,99876.33
2023-03-08T05:01:53.052Z,99852.78
2023-03-08T05:04:22.984Z,99847.92
2023-03-08T05:06:52.744Z,99842.34
2023-03-08T05:09:24.596Z,99834.44
2023-03-08T05:11:55.182Z,99832.45
2023-03-08T05:14:25.125Z,99836.26
2023-03-08T05:16:58.068Z,99833.95
2023-03-08T05:19:28.066Z,99828.23
2023-03-08T05:21:57.893Z,99826.24
2023-03-08T05:24:27.755Z,99823.68
2023-03-08T05:26:58.564Z,99823.55
2023-03-08T05:29:28.708Z,99814.47
2023-03-08T05:32:00.930Z,99803.39
2023-03-08T05:34:31.909Z,99785.67
2023-03-08T05:37:01.945Z,99785.67
2023-03-08T05:39:32.227Z,99790.40
2023-03-08T05:42:03.709Z,99786.63
2023-03-08T05:44:36.130Z,99774.23
2023-03-08T05:47:06.159Z,99781.88
2023-03-08T05:49:36.045Z,99773.82
2023-03-08T05:52:07.118Z,99768.32
2023-03-08T05:54:39.545Z,99765.18
2023-03-08T05:57:11.041Z,99754.79
2023-03-08T05:59:40.886Z,99744.25
2023-03-08T06:02:11.965Z,99744.25
2023-03-08T06:04:49.821Z,99741.02
2023-03-08T06:07:21.308Z,99736.66
2023-03-08T06:09:52.983Z,99727.14
2023-03-08T06:12:22.848Z,99728.12
2023-03-08T06:14:54.702Z,99730.51
2023-03-08T06:17:26.127Z,99723.03
2023-03-08T06:19:57.095Z,99723.31
2023-03-08T06:22:26.932Z,99727.76
2023-03-08T06:24:57.413Z,99709.27
2023-03-08T06:27:29.099Z,99713.26
2023-03-08T06:30:00.954Z,99717.34
2023-03-08T06:32:32.604Z,99711.55
2023-03-08T06:35:02.875Z,99712.37
2023-03-08T06:37:37.178Z,99714.02
2023-03-08T06:40:11.889Z,99712.85
2023-03-08T06:42:42.115Z,99713.45
2023-03-08T06:45:13.862Z,99713.41
2023-03-08T06:47:43.979Z,99711.45
2023-03-08T06:50:15.150Z,99707.66
2023-03-08T06:52:46.741Z,99708.71
2023-03-08T06:55:17.589Z,99683.30
2023-03-08T06:57:47.386Z,99683.30
2023-03-08T07:00:17.511Z,99703.16
2023-03-08T07:02:48.549Z,99705.66
2023-03-08T07:05:18.138Z,99705.02
2023-03-08T07:07:47.960Z,99704.73
2023-03-08T07:10:20.314Z,99706.86
2023-03-08T07:12:51.496Z,99707.47
2023-03-08T07:15:23.350Z,99701.91
2023-03-08T07:17:57.729Z,99704.78
2023-03-08T07:20:28.526Z,99704.78
2023-03-08T07:23:00.343Z,99702.22
2023-03-08T07:25:30.132Z,99704.22
2023-03-08T07:28:02.905Z,99700.64
2023-03-08T07:30:33.105Z,99697.66
2023-03-08T07:33:02.914Z,99699.09
2023-03-08T07:35:32.777Z,99701.01
2023-03-08T07:38:02.725Z,99692.91
2023-03-08T07:40:32.800Z,99690.20
2023-03-08T07:43:02.640Z,99683.42
2023-03-08T07:45:34.390Z,99681.08
2023-03-08T07:48:06.975Z,99673.42
2023-03-08T07:50:37.496Z,99680.05
2023-03-08T07:53:08.106Z,99680.05
2023-03-08T07:55:39.114Z,99672.77
2023-03-08T07:58:11.284Z,99669.66
2023-03-08T08:00:41.369Z,99666.15
2023-03-08T08:03:11.183Z,99661.55
2023-03-08T08:05:41.466Z,99661.98
2023-03-08T08:08:13.814Z,99661.59
2023-03-08T08:10:44.364Z,99661.59
2023-03-08T08:13:14.286Z,99661.73
2023-03-08T08:15:44.069Z,99657.82
2023-03-08T08:18:13.901Z,99649.48
2023-03-08T08:20:44.352Z,99649.23
2023-03-08T08:23:14.136Z,99644.15
2023-03-08T08:25:45.588Z,99649.30
2023-03-08T08:28:15.433Z,99645.69
2023-03-08T08:30:45.472Z,99647.05
2023-03-08T08:33:15.177Z,99634.87
2023-03-08T08:35:45.122Z,99635.38
2023-03-08T08:38:14.908Z,99638.15
2023-03-08T08:40:44.773Z,99639.95
2023-03-08T08:43:14.401Z,99632.69
2023-03-08T08:45:49.108Z,99630.70
2023-03-08T08:48:18.844Z,99627.27
2023-03-08T08:50:48.625Z,99614.23
2023-03-08T08:53:18.620Z,99612.91
2023-03-08T08:55:48.514Z,99608.56
2023-03-08T08:58:18.142Z,99608.09
2023-03-08T09:00:48.201Z,99612.63
2023-03-08T09:03:18.254Z,99607.02
2023-03-08T09:05:48.148Z,99604.63
2023-03-08T09:08:17.968Z,99606.16
2023-03-08T09:10:48.128Z,99608.50
2023-03-08T09:13:17.942Z,99604.77
2023-03-08T09:15:47.823Z,99603.55
2023-03-08T09:18:17.609Z,99596.87
2023-03-08T09:20:47.373Z,99599.31
2023-03-08T09:23:17.182Z,99589.05
2023-03-08T09:25:46.981Z,99586.12
2023-03-08T09:28:16.782Z,99587.73
2023-03-08T09:30:46.284Z,99576.32
2023-03-08T09:33:16.250Z,99574.87
2023-03-08T09:35:46.051Z,99576.72
2023-03-08T09:38:15.862Z,99573.52
2023-03-08T09:40:48.642Z,99571.27
2023-03-08T09:43:21.780Z,99563.00
2023-03-08T09:45:55.021Z,99554.84
2023-03-08T09:48:29.620Z,99540.39
2023-03-08T09:51:03.865Z,99540.39
2023-03-08T09:53:42.513Z,99529.64
2023-03-08T09:56:17.865Z,99529.64
2023-03-08T09:58:50.357Z,99520.22
2023-03-08T10:01:41.308Z,99515.47
2023-03-08T10:04:26.623Z,99519.77
2023-03-08T10:07:30.559Z,99520.31
2023-03-08T10:10:09.728Z,99524.49
2023-03-08T10:12:50.862Z,99512.47
2023-03-08T10:15:23.411Z,99508.51
2023-03-08T10:18:08.347Z,99500.66
2023-03-08T10:20:41.050Z,99510.30
2023-03-08T10:23:22.189Z,99498.56
2023-03-08T10:25:52.422Z,99518.49
2023-03-08T10:28:27.786Z,99507.08
2023-03-08T10:30:59.806Z,99517.11
2023-03-08T10:33:37.051Z,99515.44
2023-03-08T10:36:12.736Z,99508.25
2023-03-08T10:38:42.368Z,99507.11
2023-03-08T10:41:15.231Z,99503.98
2023-03-08T10:43:53.710Z,99508.23
2023-03-08T10:46:26.373Z,99507.03
2023-03-08T10:48:56.299Z,99490.30
2023-03-08T10:51:29.314Z,99472.98
2023-03-08T10:54:02.773Z,99477.25
2023-03-08T10:56:56.369Z,99484.83
2023-03-08T10:59:30.824Z,99478.02
2023-03-08T11:02:04.371Z,99472.86
2023-03-08T11:04:34.276Z,99478.97
2023-03-08T11:07:13.174Z,99471.78
2023-03-08T11:09:42.951Z,99474.36
2023-03-08T11:12:15.691Z,99473.91
2023-03-08T11:14:45.657Z,99485.18
2023-03-08T11:17:37.280Z,99471.81
2023-03-08T11:20:24.835Z,99475.13
2023-03-08T11:22:57.675Z,99490.16
2023-03-08T11:25:39.591Z,99478.53
2023-03-08T11:28:20.564Z,99485.23
2023-03-08T11:31:12.600Z,99481.42
2023-03-08T11:33:48.486Z,99478.48
2023-03-08T11:36:38.933Z,99488.48
2023-03-08T11:39:20.649Z,99476.16
2023-03-08T11:41:56.055Z,99482.14
2023-03-08T11:44:43.735Z,99470.90
2023-03-08T11:47:40.248Z,99460.03
2023-03-08T11:53:36.275Z,99471.73
2023-03-08T11:56:27.803Z,99464.47
2023-03-08T11:59:15.273Z,99459.02
2023-03-08T12:02:05.846Z,99449.69
2023-03-08T12:04:53.849Z,99449.69
2023-03-08T12:07:35.576Z,99442.30
2023-03-08T12:10:33.780Z,99434.06
2023-03-08T12:13:04.097Z,99444.86
2023-03-08T12:15:36.645Z,99445.08
2023-03-08T12:18:16.821Z,99426.98
2023-03-08T12:20:47.446Z,99428.92
2023-03-08T12:23:20.601Z,99423.48
2023-03-08T12:25:53.375Z,99423.48
2023-03-08T12:28:25.980Z,99422.37
2023-03-08T12:33:40.556Z,99397.26
2023-03-08T12:36:11.794Z,99406.69
2023-03-08T12:38:47.858Z,99412.28
2023-03-08T12:41:23.350Z,99411.78
2023-03-08T12:44:26.321Z,99433.48
2023-03-08T12:47:13.992Z,99423.33
2023-03-08T12:49:47.414Z,99416.68
2023-03-08T12:52:23.308Z,99413.77
2023-03-08T12:55:20.882Z,99414.44
2023-03-08T12:57:53.824Z,99403.66
2023-03-08T13:00:29.179Z,99405.83
2023-03-08T13:03:14.558Z,99414.78
2023-03-08T13:05:46.874Z,99417.65
2023-03-08T13:08:23.369Z,99409.33
2023-03-08T13:10:58.730Z,99392.03
2023-03-08T13:13:46.232Z,99383.45
2023-03-08T13:16:21.895Z,99373.58
2023-03-08T13:18:55.165Z,99366.94
2023-03-08T13:21:36.650Z,99380.85
2023-03-08T13:24:23.245Z,99386.16
2023-03-08T13:27:04.456Z,99386.16
2023-03-08T13:29:35.597Z,99378.73
2023-03-08T13:32:18.608Z,99382.45
2023-03-08T13:34:54.238Z,99376.37
2023-03-08T13:37:28.541Z,99369.53
2023-03-08T13:40:00.469Z,99364.71
2023-03-08T13:42:30.739Z,99358.55
2023-03-08T13:45:12.205Z,99369.14
2023-03-08T13:47:43.492Z,99371.36
2023-03-08T13:50:21.586Z,99390.56
2023-03-08T13:52:52.094Z,99390.56
2023-03-08T13:58:07.703Z,99390.31
2023-03-08T14:00:37.735Z,99386.30
2023-03-08T14:03:07.936Z,99381.48
2023-03-08T14:05:45.581Z,99374.52
2023-03-08T14:08:24.956Z,99368.61
2023-03-08T14:11:04.171Z,99373.02
2023-03-08T14:13:36.922Z,99379.81
2023-03-08T14:16:09.674Z,99377.59
2023-03-08T14:18:43.630Z,99368.77
2023-03-08T14:21:18.948Z,99373.02
2023-03-08T14:23:54.446Z,99362.00
2023-03-08T14:26:24.596Z,99358.34
2023-03-08T14:29:19.319Z,99360.20
2023-03-08T14:32:04.610Z,99365.66
2023-03-08T14:34:45.815Z,99369.45
2023-03-08T14:37:29.902Z,99369.28
2023-03-08T14:40:36.475Z,99355.89
2023-03-08T14:43:09.414Z,99338.36
2023-03-08T14:45:42.821Z,99332.03
2023-03-08T14:48:18.838Z,99332.03
2023-03-08T14:50:57.354Z,99333.89
2023-03-08T14:53:30.674Z,99331.87
2023-03-08T14:56:03.563Z,99338.09
2023-03-08T14:58:35.287Z,99338.55
2023-03-08T15:01:05.273Z,99346.81
2023-03-08T15:03:35.251Z,99356.41
2023-03-08T15:06:09.498Z,99359.69
2023-03-08T15:08:39.640Z,99364.93
2023-03-08T15:11:09.644Z,99365.13
2023-03-08T15:13:39.587Z,99354.39
2023-03-08T15:16:14.225Z,99363.38
2023-03-08T15:18:43.133Z,99359.05
2023-03-08T15:21:16.080Z,99359.05
2023-03-08T15:23:47.694Z,99360.41
2023-03-08T15:26:20.899Z,99369.61
2023-03-08T15:28:50.791Z,99372.84
2023-03-08T15:31:21.621Z,99373.06
2023-03-08T15:33:51.303Z,99366.05
2023-03-08T15:36:21.205Z,99351.84
2023-03-08T15:38:50.908Z,99354.88
2023-03-08T15:41:20.827Z,99355.93
2023-03-08T15:43:51.463Z,99354.58
2023-03-08T15:46:21.043Z,99356.95
2023-03-08T15:48:51.128Z,99354.31
2023-03-08T15:51:23.026Z,99354.31
2023-03-08T15:53:52.825Z,99357.62
2023-03-08T15:56:22.797Z,99354.70
2023-03-08T15:58:54.584Z,99346.57
2023-03-08T16:01:27.647Z,99346.57
2023-03-08T16:03:58.357Z,99356.28
2023-03-08T16:06:28.214Z,99347.27
2023-03-08T16:08:58.571Z,99350.30
2023-03-08T16:11:28.438Z,99353.81
2023-03-08T16:13:58.411Z,99361.64
2023-03-08T16:16:42.561Z,99351.16
2023-03-08T16:18:59.853Z,99352.39
2023-03-08T16:21:29.745Z,99346.80
2023-03-08T16:24:01.159Z,99339.25
2023-03-08T16:26:31.028Z,99345.34
2023-03-08T16:29:00.792Z,99328.67
2023-03-08T16:31:32.242Z,99335.97
2023-03-08T16:34:06.265Z,99336.69
2023-03-08T16:36:36.479Z,99328.72
2023-03-08T16:39:07.602Z,99337.00
2023-03-08T16:41:38.800Z,99331.69
2023-03-08T16:44:21.473Z,99332.75
2023-03-08T16:46:52.086Z,99340.45
2023-03-08T16:49:23.091Z,99335.84
2023-03-08T16:51:52.880Z,99336.36
2023-03-08T16:54:22.681Z,99338.15
2023-03-08T16:56:52.922Z,99329.12
2023-03-08T16:59:22.874Z,99339.80
2023-03-08T17:01:52.749Z,99328.80
2023-03-08T17:04:23.112Z,99332.45
2023-03-08T17:06:53.092Z,99324.88
2023-03-08T17:09:23.004Z,99337.00
2023-03-08T17:11:52.775Z,99337.95
2023-03-08T17:14:22.516Z,99337.95
2023-03-08T17:16:52.293Z,99336.83
2023-03-08T17:19:22.118Z,99345.20
2023-03-08T17:21:52.872Z,99342.38
2023-03-08T17:24:22.638Z,99353.63
2023-03-08T17:26:53.019Z,99348.35
2023-03-08T17:29:23.346Z,99345.79
2023-03-08T17:31:53.899Z,99343.93
2023-03-08T17:34:23.749Z,99354.73
2023-03-08T17:36:53.581Z,99354.42
2023-03-08T17:39:23.694Z,99353.55
2023-03-08T17:41:53.466Z,99349.84
2023-03-08T17:44:23.239Z,99347.98
2023-03-08T17:46:53.047Z,99344.80
2023-03-08T17:49:24.981Z,99350.45
2023-03-08T17:51:54.953Z,99352.04
2023-03-08T17:54:24.721Z,99346.43
2023-03-08T17:56:54.557Z,99344.16
2023-03-08T17:59:24.825Z,99338.14
2023-03-08T18:01:54.980Z,99331.02
2023-03-08T18:04:24.618Z,99336.59
2023-03-08T18:06:54.677Z,99344.67
2023-03-08T18:09:24.798Z,99341.70
2023-03-08T18:11:54.608Z,99341.70
2023-03-08T18:14:34.409Z,99342.19
2023-03-08T18:16:56.111Z,99358.88
2023-03-08T18:19:26.028Z,99354.70
2023-03-08T18:21:57.558Z,99356.36
2023-03-08T18:24:28.384Z,99347.16
2023-03-08T18:26:58.236Z,99335.58
2023-03-08T18:29:27.882Z,99330.69
2023-03-08T18:31:57.627Z,99332.42
2023-03-08T18:34:27.821Z,99332.25
2023-03-08T18:37:01.492Z,99331.40
2023-03-08T18:39:31.120Z,99324.89
2023-03-08T18:42:02.118Z,99320.33
2023-03-08T18:44:32.424Z,99308.22
2023-03-08T18:47:02.649Z,99314.53
2023-03-08T18:49:32.583Z,99311.00
2023-03-08T18:52:02.442Z,99310.69
2023-03-08T18:54:33.543Z,99306.33
2023-03-08T18:57:03.385Z,99304.26
2023-03-08T18:59:36.738Z,99316.28
2023-03-08T19:02:11.944Z,99309.13
2023-03-08T19:04:45.745Z,99303.64
2023-03-08T19:07:16.069Z,99303.64
2023-03-08T19:09:46.008Z,99305.02
2023-03-08T19:12:16.101Z,99304.16
2023-03-08T19:14:47.636Z,99290.52
2023-03-08T19:17:17.409Z,99283.13
2023-03-08T19:19:47.201Z,99290.64
2023-03-08T19:22:19.688Z,99297.38
2023-03-08T19:24:49.510Z,99299.04
2023-03-08T19:27:19.860Z,99303.48
2023-03-08T19:29:49.749Z,99293.27
2023-03-08T19:32:19.928Z,99297.34
2023-03-08T19:34:49.844Z,99292.80
2023-03-08T19:37:19.750Z,99282.64
2023-03-08T19:39:50.094Z,99285.23
2023-03-08T19:42:19.799Z,99284.04
2023-03-08T19:44:50.801Z,99292.17
2023-03-08T19:47:20.838Z,99300.25
2023-03-08T19:49:50.989Z,99294.69
2023-03-08T19:52:20.825Z,99300.77
2023-03-08T19:54:50.362Z,99296.12
2023-03-08T19:57:20.174Z,99296.12
2023-03-08T19:59:50.329Z,99299.09
2023-03-08T20:02:19.915Z,99296.56
2023-03-08T20:04:50.082Z,99294.67
2023-03-08T20:07:19.891Z,99295.79
2023-03-08T20:09:52.918Z,99301.03
2023-03-08T20:12:22.742Z,99293.73
2023-03-08T20:14:52.954Z,99298.91
2023-03-08T20:17:23.874Z,99286.07
2023-03-08T20:19:53.674Z,99286.07
2023-03-08T20:22:23.511Z,99279.32
2023-03-08T20:24:53.594Z,99269.30
2023-03-08T20:27:23.345Z,99273.27
2023-03-08T20:29:53.942Z,99272.38
2023-03-08T20:32:23.967Z,99276.77
2023-03-08T20:34:53.737Z,99277.91
2023-03-08T20:37:23.780Z,99273.66
2023-03-08T20:39:58.244Z,99265.95
2023-03-08T20:42:27.883Z,99254.02
2023-03-08T20:44:57.752Z,99254.02
2023-03-08T20:47:27.784Z,99256.86
2023-03-08T20:49:57.578Z,99260.09
2023-03-08T20:52:27.448Z,99259.29
2023-03-08T20:54:57.285Z,99268.03
2023-03-08T20:57:27.445Z,99243.36
2023-03-08T20:59:57.604Z,99266.94
2023-03-08T21:02:27.409Z,99263.35
2023-03-08T21:04:58.218Z,99263.35
2023-03-08T21:07:28.370Z,99262.39
2023-03-08T21:09:58.201Z,99264.03
2023-03-08T21:12:27.683Z,99270.42
2023-03-08T21:14:58.708Z,99268.82
2023-03-08T21:17:30.104Z,99271.38
2023-03-08T21:20:00.237Z,99264.95
2023-03-08T21:22:32.215Z,99267.58
2023-03-08T21:25:02.170Z,99271.73
2023-03-08T21:27:32.227Z,99266.56
2023-03-08T21:30:02.123Z,99249.78
2023-03-08T21:32:32.160Z,99248.53
2023-03-08T21:35:02.037Z,99246.56
2023-03-08T21:37:31.849Z,99246.23
2023-03-08T21:40:01.817Z,99248.80
2023-03-08T21:42:31.569Z,99249.80
2023-03-08T21:45:01.407Z,99247.05
2023-03-08T21:47:31.157Z,99234.64
2023-03-08T21:50:01.329Z,99225.33
2023-03-08T21:52:31.122Z,99220.47
2023-03-08T21:55:01.202Z,99216.25
2023-03-08T21:57:33.735Z,99211.27
2023-03-08T22:00:04.142Z,99204.66
2023-03-08T22:02:35.695Z,99207.16
2023-03-08T22:05:07.761Z,99210.78
2023-03-08T22:07:37.904Z,99210.16
2023-03-08T22:10:09.182Z,99211.33
2023-03-08T22:12:39.000Z,99211.33
2023-03-08T22:15:09.246Z,99206.30
2023-03-08T22:17:39.774Z,99206.66
2023-03-08T22:20:13.513Z,99198.91
2023-03-08T22:22:44.168Z,99191.85
2023-03-08T22:25:14.232Z,99198.97
2023-03-08T22:27:44.342Z,99188.55
2023-03-08T22:30:14.672Z,99189.88
2023-03-08T22:32:44.871Z,99183.80
2023-03-08T22:35:15.278Z,99188.72
2023-03-08T22:37:45.650Z,99188.11
2023-03-08T22:40:18.126Z,99192.50
2023-03-08T22:42:48.008Z,99181.61
2023-03-08T22:45:17.910Z,99181.61
2023-03-08T22:47:48.029Z,99185.23
2023-03-08T22:50:17.967Z,99183.99
2023-03-08T22:52:47.786Z,99172.48
2023-03-08T22:55:17.764Z,99170.48
2023-03-08T22:57:47.858Z,99172.59
2023-03-08T23:00:19.694Z,99170.45
2023-03-08T23:02:49.912Z,99180.06
2023-03-08T23:05:21.518Z,99194.95
2023-03-08T23:07:53.192Z,99195.97
2023-03-08T23:10:22.993Z,99197.76
2023-03-08T23:12:52.864Z,99203.14
2023-03-08T23:15:22.758Z,99213.34
2023-03-08T23:17:52.995Z,99213.34
2023-03-08T23:20:22.759Z,99218.61
2023-03-08T23:22:52.868Z,99227.23
2023-03-08T23:25:22.782Z,99222.78
2023-03-08T23:27:52.626Z,99219.16
2023-03-08T23:30:22.403Z,99219.33
2023-03-08T23:32:52.364Z,99230.11
2023-03-08T23:35:22.019Z,99222.87
2023-03-08T23:37:51.788Z,99220.89
2023-03-08T23:40:21.311Z,99230.04
2023-03-08T23:42:51.097Z,99211.61
2023-03-08T23:45:21.195Z,99223.17
2023-03-08T23:47:51.213Z,99217.31
2023-03-08T23:50:21.109Z,99202.60
2023-03-08T23:52:50.539Z,99201.16
2023-03-08T23:55:20.382Z,99205.38
2023-03-08T23:57:50.182Z,99211.84
